Time;durP1;ratioP1;P1;durP2;ratioP2;P2;SDS_P1;SDS_P2;PMS_P1;PMS_P2;Temp;Humidity;BMP_temperature;BMP_pressure;BME280_temperature;BME280_humidity;BME280_pressure;Samples;Min_cycle;Max_cycle;Signal;HPM_P1;HPM_P2
2024/03/07 00:00:19;;;;;;;9.40;7.07;;;12.10;99.90;;;;;;5072444;28;20024;-43
2024/03/07 00:02:49;;;;;;;9.48;7.63;;;12.10;99.90;;;;;;5070729;28;20100;-44
2024/03/07 00:05:15;;;;;;;9.52;7.65;;;12.10;99.90;;;;;;5071049;28;20028;-41
2024/03/07 00:07:41;;;;;;;8.63;6.97;;;12.10;99.90;;;;;;5071222;28;20112;-44
2024/03/07 00:10:09;;;;;;;10.75;7.82;;;12.10;99.90;;;;;;5070559;28;20099;-43
2024/03/07 00:12:35;;;;;;;9.40;7.60;;;12.10;99.90;;;;;;5072406;28;20032;-44
2024/03/07 00:15:05;;;;;;;9.40;7.43;;;12.00;99.90;;;;;;5073582;28;20073;-41
2024/03/07 00:17:31;;;;;;;9.57;7.55;;;12.10;99.90;;;;;;5070392;28;20110;-39
2024/03/07 00:19:57;;;;;;;11.00;7.90;;;12.00;99.90;;;;;;5070435;28;20109;-44
2024/03/07 00:22:24;;;;;;;8.75;6.88;;;12.10;99.90;;;;;;5072681;28;20409;-43
2024/03/07 00:24:49;;;;;;;11.57;8.23;;;12.00;99.90;;;;;;5073098;28;20032;-44
2024/03/07 00:27:16;;;;;;;10.07;7.85;;;12.00;99.90;;;;;;5071208;28;20021;-43
2024/03/07 00:29:42;;;;;;;9.02;7.25;;;12.00;99.90;;;;;;5072327;28;20544;-44
2024/03/07 00:32:10;;;;;;;9.85;6.90;;;12.00;99.90;;;;;;5071945;28;20032;-44
2024/03/07 00:34:35;;;;;;;8.38;7.03;;;12.00;99.90;;;;;;5072530;28;20608;-41
2024/03/07 00:37:02;;;;;;;9.35;7.72;;;12.00;99.90;;;;;;5070697;28;20084;-44
2024/03/07 00:39:28;;;;;;;10.98;7.53;;;12.00;99.90;;;;;;5074910;28;20420;-43
2024/03/07 00:41:53;;;;;;;8.82;7.15;;;12.00;99.90;;;;;;5075821;28;20025;-43
2024/03/07 00:44:19;;;;;;;9.73;7.57;;;12.00;99.90;;;;;;5076172;28;20037;-43
2024/03/07 00:46:45;;;;;;;8.63;6.70;;;12.00;99.90;;;;;;5074452;28;20421;-44
2024/03/07 00:49:11;;;;;;;9.82;7.55;;;11.90;99.90;;;;;;5074952;28;20032;-43
2024/03/07 00:51:37;;;;;;;9.98;7.18;;;11.90;99.90;;;;;;5076211;28;20033;-43
2024/03/07 00:54:02;;;;;;;9.15;7.32;;;11.90;99.90;;;;;;5075690;28;20051;-44
2024/03/07 00:56:28;;;;;;;10.65;7.60;;;11.90;99.90;;;;;;5076517;28;20032;-43
2024/03/07 00:58:54;;;;;;;11.82;7.80;;;11.90;99.90;;;;;;5075725;28;20048;-40
2024/03/07 01:01:20;;;;;;;11.73;7.13;;;11.90;99.90;;;;;;5075029;28;20129;-43
2024/03/07 01:03:45;;;;;;;10.55;7.60;;;11.90;99.90;;;;;;5078312;28;20028;-43
2024/03/07 01:06:11;;;;;;;11.57;7.55;;;11.90;99.90;;;;;;5075691;28;20020;-43
2024/03/07 01:08:38;;;;;;;8.75;6.90;;;11.90;99.90;;;;;;5076134;28;20025;-44
2024/03/07 01:11:11;;;;;;;11.70;7.50;;;11.90;99.90;;;;;;5074398;28;20202;-43
2024/03/07 01:13:38;;;;;;;8.65;7.15;;;11.90;99.90;;;;;;5076050;28;20032;-44
2024/03/07 01:16:04;;;;;;;10.98;8.00;;;11.80;99.90;;;;;;5075545;28;20032;-41
2024/03/07 01:18:33;;;;;;;9.82;7.32;;;11.90;99.90;;;;;;5072519;28;20365;-43
2024/03/07 01:21:02;;;;;;;10.07;7.15;;;11.80;99.90;;;;;;5075677;28;20021;-44
2024/03/07 01:23:28;;;;;;;9.40;7.28;;;11.80;99.90;;;;;;5076147;28;20029;-44
2024/03/07 01:25:56;;;;;;;9.70;7.78;;;11.80;99.90;;;;;;5073830;28;20425;-43
2024/03/07 01:28:22;;;;;;;9.55;7.68;;;11.80;99.90;;;;;;5074150;28;20028;-44
2024/03/07 01:30:49;;;;;;;10.23;7.40;;;11.80;99.90;;;;;;5074648;28;20020;-39
2024/03/07 01:33:15;;;;;;;9.85;7.15;;;11.80;99.90;;;;;;5075082;28;20395;-40
2024/03/07 01:35:40;;;;;;;10.93;7.85;;;11.80;99.90;;;;;;5074972;28;20027;-44
2024/03/07 01:38:08;;;;;;;9.80;7.75;;;11.80;99.90;;;;;;5073427;28;20025;-43
2024/03/07 01:40:34;;;;;;;9.73;7.25;;;11.80;99.90;;;;;;5072995;28;20043;-44
2024/03/07 01:43:01;;;;;;;11.55;8.10;;;11.80;99.90;;;;;;5073946;28;20025;-40
2024/03/07 01:45:27;;;;;;;11.77;8.27;;;11.80;99.90;;;;;;5074607;28;20024;-41
2024/03/07 01:47:53;;;;;;;9.52;7.63;;;11.80;99.90;;;;;;5074415;28;20103;-41
2024/03/07 01:50:18;;;;;;;10.35;7.82;;;11.80;99.90;;;;;;5074726;28;20069;-43
2024/03/07 01:52:45;;;;;;;11.73;8.13;;;11.80;99.90;;;;;;5075868;28;20517;-43
2024/03/07 01:55:13;;;;;;;9.60;7.65;;;11.80;99.90;;;;;;5074171;28;20060;-42
2024/03/07 01:57:39;;;;;;;10.77;7.60;;;11.80;99.90;;;;;;5072721;28;20512;-42
2024/03/07 02:00:06;;;;;;;10.50;7.43;;;11.80;99.90;;;;;;5073236;28;20055;-42
2024/03/07 02:02:33;;;;;;;12.32;8.80;;;11.80;99.90;;;;;;5071820;28;20340;-43
2024/03/07 02:04:59;;;;;;;10.63;7.75;;;11.80;99.90;;;;;;5075230;28;20501;-43
2024/03/07 02:07:26;;;;;;;11.63;7.60;;;11.80;99.90;;;;;;5074345;28;20033;-43
2024/03/07 02:10:03;;;;;;;11.88;8.80;;;11.80;99.90;;;;;;5073668;28;20031;-44
2024/03/07 02:12:30;;;;;;;11.38;8.23;;;11.70;99.90;;;;;;5072780;28;20031;-40
2024/03/07 02:14:57;;;;;;;11.55;8.50;;;11.80;99.90;;;;;;5072664;28;20059;-44
2024/03/07 02:17:24;;;;;;;11.57;7.80;;;11.70;99.90;;;;;;5073742;28;20102;-42
2024/03/07 02:19:50;;;;;;;10.27;8.02;;;11.70;99.90;;;;;;5074523;28;20368;-41
2024/03/07 02:22:16;;;;;;;11.70;8.43;;;11.70;99.90;;;;;;5072950;28;20382;-44
2024/03/07 02:24:42;;;;;;;11.73;7.88;;;11.70;99.90;;;;;;5073478;28;20068;-44
2024/03/07 02:27:08;;;;;;;10.73;8.27;;;11.70;99.90;;;;;;5074767;28;20467;-43
2024/03/07 02:29:35;;;;;;;11.07;8.57;;;11.70;99.90;;;;;;5073912;28;20028;-43
2024/03/07 02:32:00;;;;;;;12.50;8.88;;;11.70;99.90;;;;;;5073197;28;20118;-43
2024/03/07 02:34:27;;;;;;;13.55;8.98;;;11.70;99.90;;;;;;5074179;28;20029;-43
2024/03/07 02:36:52;;;;;;;12.32;9.35;;;11.70;99.90;;;;;;5073689;28;20076;-42
2024/03/07 02:39:18;;;;;;;12.43;9.50;;;11.70;99.90;;;;;;5074022;28;20052;-42
2024/03/07 02:41:43;;;;;;;12.65;9.30;;;11.70;99.90;;;;;;5072638;28;20111;-43
2024/03/07 02:44:09;;;;;;;12.43;9.40;;;11.70;99.90;;;;;;5073471;28;20032;-41
2024/03/07 02:46:34;;;;;;;12.55;9.30;;;11.70;99.90;;;;;;5073300;28;20025;-43
2024/03/07 02:49:00;;;;;;;13.15;9.93;;;11.70;99.90;;;;;;5073383;28;20540;-40
2024/03/07 02:51:26;;;;;;;12.18;9.88;;;11.70;99.90;;;;;;5073430;28;20107;-42
2024/03/07 02:53:52;;;;;;;14.38;10.10;;;11.70;99.90;;;;;;5073334;28;20432;-43
2024/03/07 02:56:17;;;;;;;12.68;9.82;;;11.70;99.90;;;;;;5073823;28;20086;-44
2024/03/07 02:58:43;;;;;;;14.77;10.40;;;11.70;99.90;;;;;;5071587;28;20481;-43
2024/03/07 03:01:10;;;;;;;12.07;10.10;;;11.70;99.90;;;;;;5071181;28;20028;-44
2024/03/07 03:03:36;;;;;;;12.23;9.73;;;11.70;99.90;;;;;;5073533;28;20016;-44
2024/03/07 03:06:02;;;;;;;11.48;9.63;;;11.70;99.90;;;;;;5072967;28;20051;-43
2024/03/07 03:08:28;;;;;;;13.13;10.60;;;11.60;99.90;;;;;;5072276;28;20393;-44
2024/03/07 03:10:55;;;;;;;13.90;10.27;;;11.70;99.90;;;;;;5072802;28;20543;-39
2024/03/07 03:13:21;;;;;;;13.32;10.48;;;11.60;99.90;;;;;;5071498;28;20024;-44
2024/03/07 03:15:46;;;;;;;15.00;11.07;;;11.60;99.90;;;;;;5071959;28;20590;-43
2024/03/07 03:18:12;;;;;;;15.63;10.80;;;11.60;99.90;;;;;;5072551;28;20108;-45
2024/03/07 03:20:38;;;;;;;13.52;11.05;;;11.60;99.90;;;;;;5072385;28;20387;-41
2024/03/07 03:23:05;;;;;;;14.75;12.18;;;11.60;99.90;;;;;;5072549;28;20024;-44
2024/03/07 03:25:34;;;;;;;15.85;11.57;;;11.60;99.90;;;;;;5071966;28;20082;-43
2024/03/07 03:28:01;;;;;;;15.95;11.25;;;11.60;99.90;;;;;;5071530;28;20104;-43
2024/03/07 03:30:27;;;;;;;15.23;11.52;;;11.60;99.90;;;;;;5073037;28;20017;-43
2024/03/07 03:32:52;;;;;;;14.20;11.43;;;11.60;99.90;;;;;;5072260;28;20103;-44
2024/03/07 03:35:19;;;;;;;17.55;12.02;;;11.60;99.90;;;;;;5073826;28;20042;-44
2024/03/07 03:37:46;;;;;;;15.95;12.48;;;11.60;99.90;;;;;;5072534;28;20491;-41
2024/03/07 03:40:12;;;;;;;13.45;11.32;;;11.60;99.90;;;;;;5072915;28;20028;-43
2024/03/07 03:42:42;;;;;;;17.05;12.40;;;11.60;99.90;;;;;;5072550;28;20040;-42
2024/03/07 03:45:09;;;;;;;15.43;12.43;;;11.60;99.90;;;;;;5072735;28;20017;-43
2024/03/07 03:47:36;;;;;;;20.70;14.52;;;11.60;99.90;;;;;;5070765;28;20115;-43
2024/03/07 03:50:07;;;;;;;21.48;13.95;;;11.60;99.90;;;;;;5071916;28;20051;-39
2024/03/07 03:52:34;;;;;;;17.73;13.07;;;11.60;99.90;;;;;;5071842;28;20025;-41
2024/03/07 03:55:01;;;;;;;18.73;13.65;;;11.60;99.90;;;;;;5071379;28;20402;-44
2024/03/07 03:57:29;;;;;;;15.77;12.27;;;11.60;99.90;;;;;;5071667;28;20025;-44
2024/03/07 03:59:56;;;;;;;17.60;13.15;;;11.60;99.90;;;;;;5073089;28;20060;-42
2024/03/07 04:02:25;;;;;;;16.27;12.57;;;11.60;99.90;;;;;;5073069;28;20025;-43
2024/03/07 04:04:52;;;;;;;16.77;12.85;;;11.60;99.90;;;;;;5072752;28;20103;-44
2024/03/07 04:07:18;;;;;;;16.40;12.48;;;11.60;99.90;;;;;;5072078;28;20387;-42
2024/03/07 04:09:45;;;;;;;17.80;13.45;;;11.50;99.90;;;;;;5073282;28;20020;-44
2024/03/07 04:12:11;;;;;;;15.70;12.68;;;11.60;99.90;;;;;;5071704;28;20514;-43
2024/03/07 04:14:40;;;;;;;17.60;13.18;;;11.50;99.90;;;;;;5074072;28;20069;-43
2024/03/07 04:17:07;;;;;;;18.02;12.48;;;11.50;99.90;;;;;;5074660;28;20024;-43
2024/03/07 04:19:38;;;;;;;15.70;12.07;;;11.50;99.90;;;;;;5075881;28;20150;-43
2024/03/07 04:22:04;;;;;;;18.58;12.73;;;11.50;99.90;;;;;;5076092;28;20492;-43
2024/03/07 04:24:32;;;;;;;16.23;12.25;;;11.50;99.90;;;;;;5074737;28;20471;-41
2024/03/07 04:26:59;;;;;;;17.85;12.88;;;11.50;99.90;;;;;;5074329;28;20025;-42
2024/03/07 04:29:25;;;;;;;18.40;13.15;;;11.50;99.90;;;;;;5074378;28;20105;-40
2024/03/07 04:31:51;;;;;;;15.98;12.50;;;11.50;99.90;;;;;;5075776;28;20056;-43
2024/03/07 04:34:17;;;;;;;18.33;13.73;;;11.50;99.90;;;;;;5075787;28;20027;-44
2024/03/07 04:36:43;;;;;;;16.15;13.43;;;11.50;99.90;;;;;;5075876;28;20025;-39
2024/03/07 04:39:19;;;;;;;16.35;13.18;;;11.50;99.90;;;;;;5074667;28;20111;-40
2024/03/07 04:41:45;;;;;;;17.10;12.57;;;11.50;99.90;;;;;;5074390;28;20097;-44
2024/03/07 04:44:10;;;;;;;16.92;12.77;;;11.50;99.90;;;;;;5074825;28;20569;-43
2024/03/07 04:46:36;;;;;;;17.10;13.32;;;11.50;99.90;;;;;;5074676;28;20021;-43
2024/03/07 04:49:02;;;;;;;20.50;14.32;;;11.50;99.90;;;;;;5074047;28;20425;-44
2024/03/07 04:51:29;;;;;;;16.27;13.10;;;11.50;99.90;;;;;;5077159;28;20082;-44
2024/03/07 04:53:55;;;;;;;16.83;13.05;;;11.50;99.90;;;;;;5074953;28;20031;-44
2024/03/07 04:56:22;;;;;;;16.75;13.00;;;11.50;99.90;;;;;;5074011;28;20024;-44
2024/03/07 04:58:49;;;;;;;15.50;12.57;;;11.50;99.90;;;;;;5074442;28;20024;-44
2024/03/07 05:01:15;;;;;;;16.92;13.13;;;11.50;99.90;;;;;;5075845;28;20021;-41
2024/03/07 05:03:42;;;;;;;16.48;13.18;;;11.50;99.90;;;;;;5077453;28;20032;-44
2024/03/07 05:06:08;;;;;;;18.30;14.18;;;11.50;99.90;;;;;;5075328;28;20105;-44
2024/03/07 05:08:34;;;;;;;17.30;13.73;;;11.50;99.90;;;;;;5076056;28;20024;-43
2024/03/07 05:11:00;;;;;;;17.17;13.98;;;11.40;99.90;;;;;;5075767;28;20117;-43
2024/03/07 05:13:25;;;;;;;17.05;13.45;;;11.40;99.90;;;;;;5076608;28;20027;-44
2024/03/07 05:15:51;;;;;;;21.15;13.85;;;11.40;99.90;;;;;;5074564;28;20017;-43
2024/03/07 05:18:16;;;;;;;17.95;14.18;;;11.40;99.90;;;;;;5074188;28;20374;-44
2024/03/07 05:20:42;;;;;;;18.77;13.45;;;11.40;99.90;;;;;;5073474;28;20150;-41
2024/03/07 05:23:10;;;;;;;20.08;15.13;;;11.40;99.90;;;;;;5074158;28;20029;-44
2024/03/07 05:25:36;;;;;;;16.20;13.35;;;11.40;99.90;;;;;;5074787;28;20017;-42
2024/03/07 05:28:02;;;;;;;18.88;14.45;;;11.40;99.90;;;;;;5074562;28;20043;-43
2024/03/07 05:30:29;;;;;;;18.98;14.27;;;11.40;99.90;;;;;;5074467;28;20035;-43
2024/03/07 05:32:55;;;;;;;17.30;13.70;;;11.40;99.90;;;;;;5074697;28;20036;-43
2024/03/07 05:35:22;;;;;;;18.75;14.90;;;11.40;99.90;;;;;;5074798;28;20052;-40
2024/03/07 05:37:47;;;;;;;17.67;14.07;;;11.40;99.90;;;;;;5073046;28;20081;-42
2024/03/07 05:40:13;;;;;;;19.02;13.82;;;11.40;99.90;;;;;;5075605;28;20493;-41
2024/03/07 05:42:39;;;;;;;18.23;14.55;;;11.40;99.90;;;;;;5075476;28;20092;-42
2024/03/07 05:45:07;;;;;;;18.02;13.85;;;11.40;99.90;;;;;;5074479;28;20029;-44
2024/03/07 05:47:34;;;;;;;18.27;14.73;;;11.40;99.90;;;;;;5073026;28;20086;-42
2024/03/07 05:49:59;;;;;;;17.55;14.27;;;11.40;99.90;;;;;;5074269;28;20034;-44
2024/03/07 05:52:25;;;;;;;17.27;13.90;;;11.40;99.90;;;;;;5074981;28;20024;-43
2024/03/07 05:54:51;;;;;;;18.55;14.63;;;11.40;99.90;;;;;;5074573;28;20486;-43
2024/03/07 05:57:16;;;;;;;17.60;14.43;;;11.40;99.90;;;;;;5073015;28;20544;-43
2024/03/07 05:59:42;;;;;;;19.52;15.35;;;11.40;99.90;;;;;;5072676;28;20020;-43
2024/03/07 06:02:07;;;;;;;21.35;15.20;;;11.40;99.90;;;;;;5072891;28;20024;-43
2024/03/07 06:04:34;;;;;;;19.63;14.38;;;11.40;99.90;;;;;;5073537;28;20471;-44
2024/03/07 06:06:59;;;;;;;18.55;15.30;;;11.40;99.90;;;;;;5074441;28;20044;-43
2024/03/07 06:09:26;;;;;;;20.77;16.65;;;11.40;99.90;;;;;;5072572;28;20051;-43
2024/03/07 06:11:52;;;;;;;18.17;15.38;;;11.40;99.90;;;;;;5074403;28;20498;-43
2024/03/07 06:14:18;;;;;;;19.40;15.43;;;11.40;99.90;;;;;;5073717;28;20048;-44
2024/03/07 06:16:44;;;;;;;21.25;16.90;;;11.50;99.90;;;;;;5073658;28;20029;-44
2024/03/07 06:19:10;;;;;;;19.70;15.20;;;11.50;99.90;;;;;;5072431;28;20056;-44
2024/03/07 06:21:39;;;;;;;19.77;16.30;;;11.50;99.90;;;;;;5072360;28;20450;-44
2024/03/07 06:24:05;;;;;;;20.63;16.52;;;11.50;99.90;;;;;;5073653;28;20017;-44
2024/03/07 06:26:47;;;;;;;19.67;16.05;;;11.60;99.90;;;;;;5074481;28;20032;-44
2024/03/07 06:29:17;;;;;;;21.05;16.05;;;11.60;99.90;;;;;;5072540;28;20025;-43
2024/03/07 06:31:43;;;;;;;19.00;15.70;;;11.70;99.90;;;;;;5074061;28;20108;-43
2024/03/07 06:34:09;;;;;;;17.85;14.32;;;11.70;99.90;;;;;;5072719;28;20038;-44
2024/03/07 06:36:35;;;;;;;19.67;15.13;;;11.80;99.90;;;;;;5073973;28;20390;-43
2024/03/07 06:39:05;;;;;;;17.45;14.02;;;11.80;99.90;;;;;;5074131;28;20024;-39
2024/03/07 06:41:34;;;;;;;18.67;15.02;;;11.90;99.90;;;;;;5074148;28;20081;-44
2024/03/07 06:44:00;;;;;;;17.17;14.00;;;12.00;99.90;;;;;;5073600;28;20025;-41
2024/03/07 06:46:26;;;;;;;17.25;15.32;;;12.00;99.90;;;;;;5071942;28;20436;-44
2024/03/07 06:48:53;;;;;;;18.88;15.48;;;12.10;99.90;;;;;;5072434;28;20479;-43
2024/03/07 06:51:19;;;;;;;17.65;14.15;;;12.10;99.90;;;;;;5072464;28;20028;-40
2024/03/07 06:53:48;;;;;;;18.88;14.98;;;12.20;99.90;;;;;;5072871;28;20031;-42
2024/03/07 06:56:14;;;;;;;19.25;14.77;;;12.30;99.90;;;;;;5071144;28;20028;-43
2024/03/07 06:58:40;;;;;;;19.35;14.95;;;12.30;99.90;;;;;;5073971;28;20059;-43
2024/03/07 07:01:10;;;;;;;17.70;14.07;;;12.40;99.80;;;;;;5072852;28;20024;-41
2024/03/07 07:03:39;;;;;;;19.42;15.60;;;12.50;99.70;;;;;;5071626;28;20017;-44
2024/03/07 07:06:07;;;;;;;17.77;14.20;;;12.60;99.60;;;;;;5071459;28;20126;-44
2024/03/07 07:08:33;;;;;;;19.75;14.98;;;12.60;99.50;;;;;;5071548;28;20091;-43
2024/03/07 07:10:59;;;;;;;20.55;14.77;;;12.70;99.40;;;;;;5071359;28;20548;-44
2024/03/07 07:13:24;;;;;;;20.90;15.48;;;12.80;99.30;;;;;;5071684;28;20561;-43
2024/03/07 07:15:50;;;;;;;18.60;14.00;;;12.80;99.20;;;;;;5072426;28;20097;-43
2024/03/07 07:18:16;;;;;;;18.45;14.15;;;12.90;99.10;;;;;;5071733;28;20031;-41
2024/03/07 07:20:42;;;;;;;18.73;13.90;;;13.00;99.00;;;;;;5072943;28;20021;-43
2024/03/07 07:23:08;;;;;;;17.17;14.63;;;13.10;98.90;;;;;;5072337;28;20087;-46
2024/03/07 07:25:34;;;;;;;16.55;13.30;;;13.10;98.80;;;;;;5073303;28;20106;-44
2024/03/07 07:27:59;;;;;;;16.35;13.20;;;13.20;99.00;;;;;;5072779;28;20099;-44
2024/03/07 07:30:29;;;;;;;17.67;14.15;;;13.30;98.60;;;;;;5071137;28;20024;-43
2024/03/07 07:32:54;;;;;;;16.65;13.25;;;13.30;98.50;;;;;;5072287;28;20033;-43
2024/03/07 07:35:20;;;;;;;16.88;13.18;;;13.40;98.30;;;;;;5071849;28;20055;-43
2024/03/07 07:37:51;;;;;;;18.83;12.93;;;13.50;98.20;;;;;;5071890;28;20028;-43
2024/03/07 07:40:18;;;;;;;16.17;13.32;;;13.50;98.10;;;;;;5070962;28;20390;-40
2024/03/07 07:42:46;;;;;;;15.13;12.38;;;13.60;98.00;;;;;;5072557;28;20384;-45
2024/03/07 07:45:13;;;;;;;16.70;11.75;;;13.70;97.90;;;;;;5072885;28;20090;-44
2024/03/07 07:47:41;;;;;;;15.95;12.50;;;13.70;97.80;;;;;;5070002;28;20024;-43
2024/03/07 07:50:18;;;;;;;16.48;12.15;;;13.80;97.70;;;;;;5070689;28;20487;-39
2024/03/07 07:52:48;;;;;;;14.35;11.35;;;13.90;97.60;;;;;;5072101;28;20047;-43
2024/03/07 07:55:14;;;;;;;15.02;12.20;;;13.90;97.50;;;;;;5070959;28;20086;-44
2024/03/07 07:57:48;;;;;;;13.98;11.25;;;14.00;97.40;;;;;;5070670;28;20062;-40
2024/03/07 08:00:22;;;;;;;16.08;12.20;;;14.10;97.30;;;;;;5070695;28;20036;-42
2024/03/07 08:02:55;;;;;;;;;;;14.10;97.20;;;;;;5071362;28;20436;-44
2024/03/07 08:05:23;;;;;;;16.05;12.20;;;14.20;97.10;;;;;;5071735;28;19908;-42
2024/03/07 08:07:50;;;;;;;15.80;12.48;;;14.20;97.00;;;;;;5073147;28;20029;-40
2024/03/07 08:10:18;;;;;;;13.63;11.00;;;14.30;96.90;;;;;;5071566;28;20021;-44
2024/03/07 08:12:43;;;;;;;13.07;10.98;;;14.30;96.70;;;;;;5072414;28;20173;-43
2024/03/07 08:15:15;;;;;;;13.02;11.20;;;14.40;96.60;;;;;;5072843;28;20088;-39
2024/03/07 08:17:46;;;;;;;13.55;11.05;;;14.50;96.50;;;;;;5071575;28;20027;-43
2024/03/07 08:20:17;;;;;;;15.45;12.00;;;14.50;96.40;;;;;;5072148;28;20033;-44
2024/03/07 08:22:44;;;;;;;14.63;11.07;;;14.60;96.30;;;;;;5071676;28;20105;-44
2024/03/07 08:25:12;;;;;;;13.65;11.00;;;14.60;96.20;;;;;;5070684;28;20020;-43
2024/03/07 08:27:39;;;;;;;13.45;10.90;;;14.70;96.20;;;;;;5071110;28;20025;-44
2024/03/07 08:30:12;;;;;;;12.20;10.43;;;14.70;96.10;;;;;;5070820;28;20124;-44
2024/03/07 08:32:39;;;;;;;13.65;10.73;;;14.80;96.00;;;;;;5072255;28;20104;-43
2024/03/07 08:35:08;;;;;;;14.50;10.80;;;14.80;95.90;;;;;;5072433;28;20041;-43
2024/03/07 08:37:38;;;;;;;12.38;9.98;;;14.90;95.90;;;;;;5071266;28;20059;-44
2024/03/07 08:40:06;;;;;;;12.63;10.25;;;14.90;95.80;;;;;;5071047;28;20078;-42
2024/03/07 08:42:36;;;;;;;11.88;9.75;;;15.00;95.80;;;;;;5071678;28;20145;-43
2024/03/07 08:45:05;;;;;;;11.35;9.60;;;15.00;95.70;;;;;;5070947;28;20025;-43
2024/03/07 08:47:35;;;;;;;10.38;9.27;;;15.00;95.60;;;;;;5070963;28;20028;-44
2024/03/07 08:50:05;;;;;;;12.10;10.07;;;15.10;95.60;;;;;;5070747;28;20099;-43
2024/03/07 08:52:32;;;;;;;12.60;9.68;;;15.20;95.50;;;;;;5072000;28;20029;-43
2024/03/07 08:54:58;;;;;;;13.80;10.43;;;15.20;95.40;;;;;;5071028;28;20501;-43
2024/03/07 08:57:23;;;;;;;13.95;10.30;;;15.30;95.30;;;;;;5070357;28;20021;-44
2024/03/07 08:59:49;;;;;;;12.23;10.13;;;15.30;95.20;;;;;;5072337;28;20082;-44
2024/03/07 09:02:15;;;;;;;10.65;9.55;;;15.30;95.10;;;;;;5074574;28;20020;-44
2024/03/07 09:04:41;;;;;;;11.77;9.77;;;15.40;95.00;;;;;;5074964;28;20078;-43
2024/03/07 09:07:07;;;;;;;19.77;14.20;;;15.40;94.90;;;;;;5073892;28;20035;-43
2024/03/07 09:09:34;;;;;;;17.40;14.70;;;15.40;93.80;;;;;;5074705;28;20501;-40
2024/03/07 09:12:01;;;;;;;18.95;14.63;;;15.40;93.10;;;;;;5074977;28;20035;-43
2024/03/07 09:14:28;;;;;;;22.45;15.27;;;15.40;92.90;;;;;;5074199;28;20036;-43
2024/03/07 09:16:53;;;;;;;16.90;14.15;;;15.40;92.90;;;;;;5074166;28;20020;-42
2024/03/07 09:19:24;;;;;;;19.50;13.57;;;15.50;92.90;;;;;;5073500;28;20483;-44
2024/03/07 09:21:51;;;;;;;24.02;14.52;;;15.50;93.00;;;;;;5073936;28;20032;-44
2024/03/07 09:24:21;;;;;;;16.88;13.43;;;15.60;93.00;;;;;;5075985;28;20029;-41
2024/03/07 09:26:51;;;;;;;17.98;13.90;;;15.60;93.10;;;;;;5074380;28;20020;-43
2024/03/07 09:29:18;;;;;;;16.33;13.85;;;15.70;93.10;;;;;;5073276;28;20040;-41
2024/03/07 09:31:44;;;;;;;17.52;14.00;;;15.70;93.10;;;;;;5075082;28;20078;-44
2024/03/07 09:34:10;;;;;;;17.08;12.75;;;15.70;93.10;;;;;;5075761;28;20056;-43
2024/03/07 09:36:35;;;;;;;19.45;14.48;;;15.70;93.10;;;;;;5073919;28;20499;-44
2024/03/07 09:39:01;;;;;;;15.70;13.55;;;15.80;93.20;;;;;;5073338;28;20028;-43
2024/03/07 09:41:27;;;;;;;18.02;13.32;;;15.80;93.50;;;;;;5073310;28;20055;-44
2024/03/07 09:43:55;;;;;;;16.38;13.35;;;15.80;93.10;;;;;;5073466;28;20183;-44
2024/03/07 09:46:23;;;;;;;18.75;13.70;;;15.80;93.10;;;;;;5073307;28;20082;-41
2024/03/07 09:48:53;;;;;;;15.80;13.07;;;15.90;93.10;;;;;;5073154;28;20024;-44
2024/03/07 09:51:20;;;;;;;17.75;13.40;;;15.90;93.10;;;;;;5073324;28;20494;-44
2024/03/07 09:53:48;;;;;;;15.75;12.80;;;15.90;93.10;;;;;;5074111;28;20025;-43
2024/03/07 09:56:19;;;;;;;16.58;12.95;;;15.90;93.00;;;;;;5073130;28;20073;-44
2024/03/07 09:58:49;;;;;;;16.95;13.32;;;15.90;93.00;;;;;;5073011;28;20459;-42
2024/03/07 10:01:18;;;;;;;15.93;12.90;;;15.90;93.00;;;;;;5072766;28;20025;-44
2024/03/07 10:03:46;;;;;;;17.27;12.80;;;16.00;93.00;;;;;;5073029;28;20023;-44
2024/03/07 10:06:13;;;;;;;14.15;11.65;;;16.00;93.00;;;;;;5072853;28;20104;-42
2024/03/07 10:08:40;;;;;;;13.63;11.40;;;16.00;92.90;;;;;;5072776;28;20531;-43
2024/03/07 10:11:08;;;;;;;14.43;11.43;;;16.00;92.90;;;;;;5072212;28;20021;-44
2024/03/07 10:13:35;;;;;;;14.93;12.02;;;16.00;92.90;;;;;;5072853;28;20013;-43
2024/03/07 10:16:01;;;;;;;15.07;11.95;;;16.00;92.80;;;;;;5073419;28;20091;-43
2024/03/07 10:18:27;;;;;;;15.55;10.88;;;16.00;93.20;;;;;;5073942;28;20039;-44
2024/03/07 10:20:56;;;;;;;15.52;11.55;;;16.00;92.80;;;;;;5072433;28;20025;-41
2024/03/07 10:23:24;;;;;;;12.68;10.65;;;16.10;92.80;;;;;;5072951;28;20035;-42
2024/03/07 10:25:51;;;;;;;14.02;11.55;;;16.10;92.80;;;;;;5073062;28;20074;-43
2024/03/07 10:28:20;;;;;;;14.15;11.45;;;16.10;92.70;;;;;;5074351;28;20036;-44
2024/03/07 10:30:47;;;;;;;13.57;11.02;;;16.10;92.70;;;;;;5073133;28;20064;-41
2024/03/07 10:33:13;;;;;;;14.60;11.00;;;16.10;92.70;;;;;;5072370;28;20390;-43
2024/03/07 10:35:39;;;;;;;13.40;10.73;;;16.10;92.70;;;;;;5072690;28;20025;-44
2024/03/07 10:38:11;;;;;;;13.32;10.88;;;16.10;92.70;;;;;;5072349;28;20518;-43
2024/03/07 10:40:40;;;;;;;13.07;10.45;;;16.10;92.60;;;;;;5072176;28;20455;-41
2024/03/07 10:43:09;;;;;;;12.13;10.82;;;16.20;92.70;;;;;;5072280;28;20429;-43
2024/03/07 10:45:45;;;;;;;14.55;12.00;;;16.20;92.60;;;;;;5072498;28;20025;-44
2024/03/07 10:48:12;;;;;;;14.02;10.90;;;16.20;92.60;;;;;;5073073;28;20021;-43
2024/03/07 10:51:18;;;;;;;13.75;11.07;;;16.20;92.60;;;;;;5072642;28;20540;-44
2024/03/07 10:54:17;;;;;;;12.75;10.95;;;16.20;92.60;;;;;;5073945;28;20107;-44
2024/03/07 10:56:43;;;;;;;14.82;11.23;;;16.20;92.50;;;;;;5072625;28;20382;-44
2024/03/07 10:59:16;;;;;;;13.25;10.75;;;16.20;92.50;;;;;;5073232;28;20104;-42
2024/03/07 11:02:12;;;;;;;12.75;10.80;;;16.20;92.50;;;;;;5073139;28;20082;-41
2024/03/07 11:04:39;;;;;;;13.25;10.43;;;16.20;92.50;;;;;;5080150;28;20504;-44
2024/03/07 11:07:05;;;;;;;12.10;10.27;;;16.20;92.50;;;;;;5071595;28;20024;-44
2024/03/07 11:09:33;;;;;;;13.70;10.75;;;16.20;92.40;;;;;;5073232;28;20039;-44
2024/03/07 11:12:03;;;;;;;14.35;11.35;;;16.30;92.50;;;;;;5071039;28;20059;-44
2024/03/07 11:14:30;;;;;;;14.85;10.85;;;16.20;92.40;;;;;;5072017;28;20032;-41
2024/03/07 11:16:57;;;;;;;13.00;10.73;;;16.30;92.40;;;;;;5072322;28;20074;-45
2024/03/07 11:19:29;;;;;;;12.10;10.55;;;16.30;92.40;;;;;;5072311;28;20471;-45
2024/03/07 11:21:56;;;;;;;13.18;10.48;;;16.30;92.40;;;;;;5071245;28;20028;-44
2024/03/07 11:24:36;;;;;;;14.15;10.70;;;16.30;92.40;;;;;;5071776;28;20033;-42
2024/03/07 11:27:04;;;;;;;14.32;11.05;;;16.30;92.40;;;;;;5071669;28;20066;-45
2024/03/07 11:29:42;;;;;;;13.15;9.90;;;16.30;92.30;;;;;;5071933;28;20033;-44
2024/03/07 11:32:11;;;;;;;13.77;10.07;;;16.30;92.40;;;;;;5071692;28;20029;-45
2024/03/07 11:34:41;;;;;;;12.02;9.20;;;16.30;92.70;;;;;;5071207;28;20474;-44
2024/03/07 11:37:07;;;;;;;11.07;9.25;;;16.30;92.70;;;;;;5071746;28;20039;-45
2024/03/07 11:39:43;;;;;;;11.70;9.00;;;16.30;92.30;;;;;;5073298;28;20051;-45
2024/03/07 11:42:19;;;;;;;12.00;9.75;;;16.30;92.30;;;;;;5072504;28;20052;-44
2024/03/07 11:44:46;;;;;;;10.70;8.90;;;16.30;92.30;;;;;;5071166;28;20024;-44
2024/03/07 11:47:13;;;;;;;12.27;9.73;;;16.30;92.30;;;;;;5070916;28;20020;-42
2024/03/07 11:49:38;;;;;;;12.18;9.60;;;16.30;92.20;;;;;;5071154;28;20032;-45
2024/03/07 11:52:11;;;;;;;12.07;9.68;;;16.30;92.20;;;;;;5072137;28;20028;-45
2024/03/07 11:54:40;;;;;;;12.25;9.23;;;16.40;92.20;;;;;;5072037;28;20108;-45
2024/03/07 11:57:12;;;;;;;11.38;9.00;;;16.40;92.20;;;;;;5071163;28;20078;-43
2024/03/07 11:59:45;;;;;;;11.80;9.23;;;16.30;92.20;;;;;;5071867;28;20017;-45
2024/03/07 12:02:15;;;;;;;11.80;9.13;;;16.40;92.20;;;;;;5071795;28;20043;-44
2024/03/07 12:04:41;;;;;;;12.45;9.38;;;16.40;92.20;;;;;;5072244;28;20027;-45
2024/03/07 12:07:10;;;;;;;12.52;9.15;;;16.40;92.20;;;;;;5072197;28;20033;-45
2024/03/07 12:09:37;;;;;;;10.75;8.65;;;16.40;92.10;;;;;;5072076;28;20046;-45
2024/03/07 12:12:05;;;;;;;11.48;8.60;;;16.40;92.20;;;;;;5071766;28;20032;-43
2024/03/07 12:14:31;;;;;;;10.30;8.20;;;16.40;92.20;;;;;;5071557;28;20028;-42
2024/03/07 12:16:56;;;;;;;11.75;8.80;;;16.50;92.20;;;;;;5071840;28;20035;-44
2024/03/07 12:19:23;;;;;;;9.85;7.88;;;16.50;92.20;;;;;;5070616;28;20497;-44
2024/03/07 12:21:49;;;;;;;9.43;7.72;;;16.50;92.10;;;;;;5071152;28;20537;-44
2024/03/07 12:24:15;;;;;;;10.50;8.40;;;16.50;92.10;;;;;;5071191;28;20640;-44
2024/03/07 12:26:42;;;;;;;11.75;8.48;;;16.60;92.10;;;;;;5070730;28;20027;-44
2024/03/07 12:29:11;;;;;;;9.95;8.00;;;16.60;92.10;;;;;;5070380;28;20025;-44
2024/03/07 12:31:53;;;;;;;9.95;8.18;;;16.60;92.10;;;;;;5064349;28;20033;-45